sensor_id;sensor_type;location;lat;lon;timestamp;pressure;altitude;pressure_sealevel;temperature;humidity
8280;BME280;8335;42.646;23.380;2023-02-28T00:01:04;143280.97;;;6.81;100.00
8280;BME280;8335;42.646;23.380;2023-02-28T00:03:31;143290.88;;;6.85;100.00
8280;BME280;8335;42.646;23.380;2023-02-28T00:06:01;143284.69;;;6.83;100.00
8280;BME280;8335;42.646;23.380;2023-02-28T00:08:27;143278.50;;;6.80;100.00
8280;BME280;8335;42.646;23.380;2023-02-28T00:10:54;143288.41;;;6.84;100.00
8280;BME280;8335;42.646;23.380;2023-02-28T00:13:23;143282.22;;;6.82;100.00
8280;BME280;8335;42.646;23.380;2023-02-28T00:15:59;143303.28;;;6.90;100.00
8280;BME280;8335;42.646;23.380;2023-02-28T00:18:26;143310.72;;;6.94;100.00
8280;BME280;8335;42.646;23.380;2023-02-28T00:20:53;143319.38;;;6.97;100.00
8280;BME280;8335;42.646;23.380;2023-02-28T00:23:20;143318.16;;;6.97;100.00
8280;BME280;8335;42.646;23.380;2023-02-28T00:25:47;143320.63;;;6.98;100.00
8280;BME280;8335;42.646;23.380;2023-02-28T00:28:13;143319.38;;;6.97;100.00
8280;BME280;8335;42.646;23.380;2023-02-28T00:30:42;143323.09;;;6.99;100.00
8280;BME280;8335;42.646;23.380;2023-02-28T00:33:09;143298.31;;;6.88;100.00
8280;BME280;8335;42.646;23.380;2023-02-28T00:35:36;143297.09;;;6.88;100.00
8280;BME280;8335;42.646;23.380;2023-02-28T00:38:03;143290.88;;;6.85;100.00
8280;BME280;8335;42.646;23.380;2023-02-28T00:40:30;143266.09;;;6.75;100.00
8280;BME280;8335;42.646;23.380;2023-02-28T00:42:57;143254.94;;;6.71;100.00
8280;BME280;8335;42.646;23.380;2023-02-28T00:45:24;143256.16;;;6.71;100.00
8280;BME280;8335;42.646;23.380;2023-02-28T00:47:52;143274.78;;;6.79;100.00
8280;BME280;8335;42.646;23.380;2023-02-28T00:50:19;143269.81;;;6.77;100.00
8280;BME280;8335;42.646;23.380;2023-02-28T00:52:46;143276.03;;;6.79;100.00
8280;BME280;8335;42.646;23.380;2023-02-28T00:55:14;143272.28;;;6.78;100.00
8280;BME280;8335;42.646;23.380;2023-02-28T00:57:41;143271.03;;;6.77;100.00
8280;BME280;8335;42.646;23.380;2023-02-28T01:00:09;143287.16;;;6.84;100.00
8280;BME280;8335;42.646;23.380;2023-02-28T01:02:36;143304.50;;;6.91;100.00
8280;BME280;8335;42.646;23.380;2023-02-28T01:05:05;143316.91;;;6.96;100.00
8280;BME280;8335;42.646;23.380;2023-02-28T01:07:32;143314.44;;;6.95;100.00
8280;BME280;8335;42.646;23.380;2023-02-28T01:09:59;143337.97;;;7.05;100.00
8280;BME280;8335;42.646;23.380;2023-02-28T01:12:25;143354.09;;;7.11;100.00
8280;BME280;8335;42.646;23.380;2023-02-28T01:14:52;143365.28;;;7.16;100.00
8280;BME280;8335;42.646;23.380;2023-02-28T01:17:19;143375.16;;;7.20;100.00
8280;BME280;8335;42.646;23.380;2023-02-28T01:19:46;143356.56;;;7.12;100.00
8280;BME280;8335;42.646;23.380;2023-02-28T01:22:14;143376.38;;;7.21;100.00
8280;BME280;8335;42.646;23.380;2023-02-28T01:24:41;143378.91;;;7.22;100.00
8280;BME280;8335;42.646;23.380;2023-02-28T01:27:07;143364.03;;;7.15;100.00
8280;BME280;8335;42.646;23.380;2023-02-28T01:29:34;143359.03;;;7.13;100.00
8280;BME280;8335;42.646;23.380;2023-02-28T01:32:01;143365.28;;;7.16;100.00
8280;BME280;8335;42.646;23.380;2023-02-28T01:34:28;143344.19;;;7.07;100.00
8280;BME280;8335;42.646;23.380;2023-02-28T01:36:54;143335.50;;;7.04;100.00
8280;BME280;8335;42.646;23.380;2023-02-28T01:39:25;143335.50;;;7.04;100.00
8280;BME280;8335;42.646;23.380;2023-02-28T01:41:52;143356.56;;;7.12;100.00
8280;BME280;8335;42.646;23.380;2023-02-28T01:47:36;143373.91;;;7.20;100.00
8280;BME280;8335;42.646;23.380;2023-02-28T01:50:08;143383.84;;;7.24;100.00
8280;BME280;8335;42.646;23.380;2023-02-28T01:52:36;143381.38;;;7.23;100.00
8280;BME280;8335;42.646;23.380;2023-02-28T01:55:07;143385.09;;;7.24;100.00
8280;BME280;8335;42.646;23.380;2023-02-28T01:57:36;143378.91;;;7.22;100.00
8280;BME280;8335;42.646;23.380;2023-02-28T02:00:07;143366.50;;;7.16;100.00
8280;BME280;8335;42.646;23.380;2023-02-28T02:02:39;143370.22;;;7.18;100.00
8280;BME280;8335;42.646;23.380;2023-02-28T02:05:08;143365.28;;;7.16;100.00
8280;BME280;8335;42.646;23.380;2023-02-28T02:07:37;143354.09;;;7.11;100.00
8280;BME280;8335;42.646;23.380;2023-02-28T02:10:12;143305.75;;;6.92;100.00
8280;BME280;8335;42.646;23.380;2023-02-28T02:13:25;143318.16;;;6.97;100.00
8280;BME280;8335;42.646;23.380;2023-02-28T02:16:00;143323.09;;;6.99;100.00
8280;BME280;8335;42.646;23.380;2023-02-28T02:18:33;143328.09;;;7.01;100.00
8280;BME280;8335;42.646;23.380;2023-02-28T02:21:31;143303.28;;;6.90;100.00
8280;BME280;8335;42.646;23.380;2023-02-28T02:24:26;143311.97;;;6.94;100.00
8280;BME280;8335;42.646;23.380;2023-02-28T02:30:33;143323.09;;;6.99;100.00
8280;BME280;8335;42.646;23.380;2023-02-28T02:33:11;143336.75;;;7.04;100.00
8280;BME280;8335;42.646;23.380;2023-02-28T02:35:48;143325.56;;;7.00;100.00
8280;BME280;8335;42.646;23.380;2023-02-28T02:38:22;143297.09;;;6.88;100.00
8280;BME280;8335;42.646;23.380;2023-02-28T02:40:57;143334.25;;;7.03;100.00
8280;BME280;8335;42.646;23.380;2023-02-28T02:43:29;143333.03;;;7.03;100.00
8280;BME280;8335;42.646;23.380;2023-02-28T02:46:01;143335.50;;;7.04;100.00
8280;BME280;8335;42.646;23.380;2023-02-28T02:48:34;143328.09;;;7.01;100.00
8280;BME280;8335;42.646;23.380;2023-02-28T02:51:07;143329.31;;;7.01;100.00
8280;BME280;8335;42.646;23.380;2023-02-28T02:53:41;143337.97;;;7.05;100.00
8280;BME280;8335;42.646;23.380;2023-02-28T02:56:10;143319.38;;;6.97;100.00
8280;BME280;8335;42.646;23.380;2023-02-28T02:58:41;143339.22;;;7.05;100.00
8280;BME280;8335;42.646;23.380;2023-02-28T03:01:13;143342.91;;;7.07;100.00
8280;BME280;8335;42.646;23.380;2023-02-28T03:03:42;143340.44;;;7.06;100.00
8280;BME280;8335;42.646;23.380;2023-02-28T03:06:11;143335.50;;;7.04;100.00
8280;BME280;8335;42.646;23.380;2023-02-28T03:08:38;143325.56;;;7.00;100.00
8280;BME280;8335;42.646;23.380;2023-02-28T03:11:06;143342.91;;;7.07;100.00
8280;BME280;8335;42.646;23.380;2023-02-28T03:16:56;143366.50;;;7.16;100.00
8280;BME280;8335;42.646;23.380;2023-02-28T03:19:36;143329.31;;;7.01;100.00
8280;BME280;8335;42.646;23.380;2023-02-28T03:22:14;143294.63;;;6.87;100.00
8280;BME280;8335;42.646;23.380;2023-02-28T03:24:50;143271.03;;;6.77;100.00
8280;BME280;8335;42.646;23.380;2023-02-28T03:27:24;143217.75;;;6.55;100.00
8280;BME280;8335;42.646;23.380;2023-02-28T03:29:58;143202.91;;;6.49;100.00
8280;BME280;8335;42.646;23.380;2023-02-28T03:32:27;143217.75;;;6.55;100.00
8280;BME280;8335;42.646;23.380;2023-02-28T03:35:01;143233.88;;;6.62;100.00
8280;BME280;8335;42.646;23.380;2023-02-28T03:37:34;143245.03;;;6.67;100.00
8280;BME280;8335;42.646;23.380;2023-02-28T03:40:06;143251.22;;;6.69;100.00
8280;BME280;8335;42.646;23.380;2023-02-28T03:42:36;143253.69;;;6.70;100.00
8280;BME280;8335;42.646;23.380;2023-02-28T03:45:11;143197.94;;;6.47;100.00
8280;BME280;8335;42.646;23.380;2023-02-28T03:47:42;143194.25;;;6.46;100.00
8280;BME280;8335;42.646;23.380;2023-02-28T03:50:16;143217.75;;;6.55;100.00
8280;BME280;8335;42.646;23.380;2023-02-28T03:52:48;143197.94;;;6.47;100.00
8280;BME280;8335;42.646;23.380;2023-02-28T03:55:17;143209.13;;;6.52;100.00
8280;BME280;8335;42.646;23.380;2023-02-28T03:57:53;143197.94;;;6.47;100.00
8280;BME280;8335;42.646;23.380;2023-02-28T04:00:28;143186.78;;;6.43;100.00
8280;BME280;8335;42.646;23.380;2023-02-28T04:02:58;143184.31;;;6.42;100.00
8280;BME280;8335;42.646;23.380;2023-02-28T04:05:25;143174.44;;;6.38;100.00
8280;BME280;8335;42.646;23.380;2023-02-28T04:07:54;143148.38;;;6.27;100.00
8280;BME280;8335;42.646;23.380;2023-02-28T04:10:29;143133.53;;;6.21;100.00
8280;BME280;8335;42.646;23.380;2023-02-28T04:12:56;143154.63;;;6.29;100.00
8280;BME280;8335;42.646;23.380;2023-02-28T04:15:23;143136.03;;;6.22;100.00
8280;BME280;8335;42.646;23.380;2023-02-28T04:17:50;143075.34;;;5.97;100.00
8280;BME280;8335;42.646;23.380;2023-02-28T04:20:17;143088.97;;;6.02;100.00
8280;BME280;8335;42.646;23.380;2023-02-28T04:22:43;143075.34;;;5.97;100.00
8280;BME280;8335;42.646;23.380;2023-02-28T04:25:11;143056.72;;;5.89;100.00
8280;BME280;8335;42.646;23.380;2023-02-28T04:27:38;143072.84;;;5.96;100.00
8280;BME280;8335;42.646;23.380;2023-02-28T04:30:06;143075.34;;;5.97;100.00
8280;BME280;8335;42.646;23.380;2023-02-28T04:32:33;143051.78;;;5.87;100.00
8280;BME280;8335;42.646;23.380;2023-02-28T04:35:00;143086.50;;;6.01;100.00
8280;BME280;8335;42.646;23.380;2023-02-28T04:37:26;143067.91;;;5.94;100.00
8280;BME280;8335;42.646;23.380;2023-02-28T04:39:54;143069.16;;;5.94;100.00
8280;BME280;8335;42.646;23.380;2023-02-28T04:42:25;143088.97;;;6.02;100.00
8280;BME280;8335;42.646;23.380;2023-02-28T04:44:52;143091.44;;;6.03;100.00
8280;BME280;8335;42.646;23.380;2023-02-28T04:47:19;143080.28;;;5.99;100.00
8280;BME280;8335;42.646;23.380;2023-02-28T04:49:46;143048.03;;;5.86;100.00
8280;BME280;8335;42.646;23.380;2023-02-28T04:52:12;143046.78;;;5.85;100.00
8280;BME280;8335;42.646;23.380;2023-02-28T04:54:39;143034.44;;;5.80;100.00
8280;BME280;8335;42.646;23.380;2023-02-28T04:57:08;143026.97;;;5.77;100.00
8280;BME280;8335;42.646;23.380;2023-02-28T04:59:36;143014.63;;;5.72;100.00
8280;BME280;8335;42.646;23.380;2023-02-28T05:02:03;143031.97;;;5.79;100.00
8280;BME280;8335;42.646;23.380;2023-02-28T05:04:32;143056.72;;;5.89;100.00
8280;BME280;8335;42.646;23.380;2023-02-28T05:06:59;143054.25;;;5.88;100.00
8280;BME280;8335;42.646;23.380;2023-02-28T05:09:27;143079.03;;;5.98;100.00
8280;BME280;8335;42.646;23.380;2023-02-28T05:11:54;143087.72;;;6.02;100.00
8280;BME280;8335;42.646;23.380;2023-02-28T05:14:21;143098.84;;;6.06;100.00
8280;BME280;8335;42.646;23.380;2023-02-28T05:16:49;143107.53;;;6.10;100.00
8280;BME280;8335;42.646;23.380;2023-02-28T05:19:16;142972.50;;;5.55;100.00
8280;BME280;8335;42.646;23.380;2023-02-28T05:21:49;143119.94;;;6.15;100.00
8280;BME280;8335;42.646;23.380;2023-02-28T05:24:17;143127.34;;;6.18;100.00
8280;BME280;8335;42.646;23.380;2023-02-28T05:26:48;143137.28;;;6.22;100.00
8280;BME280;8335;42.646;23.380;2023-02-28T05:29:15;143033.22;;;5.79;100.00
8280;BME280;8335;42.646;23.380;2023-02-28T05:31:42;143145.91;;;6.26;100.00
8280;BME280;8335;42.646;23.380;2023-02-28T05:34:10;143176.91;;;6.39;100.00
8280;BME280;8335;42.646;23.380;2023-02-28T05:36:38;143175.66;;;6.38;100.00
8280;BME280;8335;42.646;23.380;2023-02-28T05:39:05;143170.72;;;6.36;100.00
8280;BME280;8335;42.646;23.380;2023-02-28T05:41:32;143193.00;;;6.45;100.00
8280;BME280;8335;42.646;23.380;2023-02-28T05:43:59;143205.41;;;6.50;100.00
8280;BME280;8335;42.646;23.380;2023-02-28T05:46:26;143214.06;;;6.54;100.00
8280;BME280;8335;42.646;23.380;2023-02-28T05:48:53;143212.81;;;6.53;100.00
8280;BME280;8335;42.646;23.380;2023-02-28T05:51:22;143228.94;;;6.60;100.00
8280;BME280;8335;42.646;23.380;2023-02-28T05:53:49;143242.56;;;6.66;100.00
8280;BME280;8335;42.646;23.380;2023-02-28T05:56:15;143253.69;;;6.70;100.00
8280;BME280;8335;42.646;23.380;2023-02-28T05:58:42;143271.03;;;6.77;100.00
8280;BME280;8335;42.646;23.380;2023-02-28T06:01:32;143272.28;;;6.78;100.00
8280;BME280;8335;42.646;23.380;2023-02-28T06:03:59;143268.56;;;6.76;100.00
8280;BME280;8335;42.646;23.380;2023-02-28T06:06:28;143261.16;;;6.73;100.00
8280;BME280;8335;42.646;23.380;2023-02-28T06:08:55;143237.59;;;6.63;100.00
8280;BME280;8335;42.646;23.380;2023-02-28T06:11:22;143226.47;;;6.59;100.00
8280;BME280;8335;42.646;23.380;2023-02-28T06:13:53;143226.47;;;6.59;100.00
8280;BME280;8335;42.646;23.380;2023-02-28T06:16:20;143247.53;;;6.68;100.00
8280;BME280;8335;42.646;23.380;2023-02-28T06:18:47;143246.28;;;6.67;100.00
8280;BME280;8335;42.646;23.380;2023-02-28T06:21:13;143258.69;;;6.72;100.00
8280;BME280;8335;42.646;23.380;2023-02-28T06:23:41;143258.69;;;6.72;100.00
8280;BME280;8335;42.646;23.380;2023-02-28T06:26:09;143240.09;;;6.65;100.00
8280;BME280;8335;42.646;23.380;2023-02-28T06:28:36;143246.28;;;6.67;100.00
8280;BME280;8335;42.646;23.380;2023-02-28T06:31:06;143215.28;;;6.54;100.00
8280;BME280;8335;42.646;23.380;2023-02-28T06:33:33;143225.22;;;6.58;100.00
8280;BME280;8335;42.646;23.380;2023-02-28T06:36:00;143254.94;;;6.71;100.00
8280;BME280;8335;42.646;23.380;2023-02-28T06:38:27;143261.16;;;6.73;100.00
8280;BME280;8335;42.646;23.380;2023-02-28T06:40:56;143304.50;;;6.91;100.00
8280;BME280;8335;42.646;23.380;2023-02-28T06:43:24;143334.25;;;7.03;100.00
8280;BME280;8335;42.646;23.380;2023-02-28T06:45:54;143320.63;;;6.98;100.00
8280;BME280;8335;42.646;23.380;2023-02-28T06:48:21;143263.63;;;6.74;100.00
8280;BME280;8335;42.646;23.380;2023-02-28T06:50:48;143289.63;;;6.85;100.00
8280;BME280;8335;42.646;23.380;2023-02-28T06:53:15;143303.28;;;6.90;100.00
8280;BME280;8335;42.646;23.380;2023-02-28T06:55:41;143309.50;;;6.93;100.00
8280;BME280;8335;42.646;23.380;2023-02-28T06:58:10;143294.63;;;6.87;100.00
8280;BME280;8335;42.646;23.380;2023-02-28T07:00:41;143278.50;;;6.80;100.00
8280;BME280;8335;42.646;23.380;2023-02-28T07:03:07;143277.28;;;6.80;100.00
8280;BME280;8335;42.646;23.380;2023-02-28T07:05:34;143285.94;;;6.83;100.00
8280;BME280;8335;42.646;23.380;2023-02-28T07:08:01;143289.63;;;6.85;100.00
8280;BME280;8335;42.646;23.380;2023-02-28T07:10:28;143306.97;;;6.92;100.00
8280;BME280;8335;42.646;23.380;2023-02-28T07:12:55;143315.69;;;6.96;100.00
8280;BME280;8335;42.646;23.380;2023-02-28T07:15:23;143311.97;;;6.94;100.00
8280;BME280;8335;42.646;23.380;2023-02-28T07:17:50;143350.38;;;7.10;100.00
8280;BME280;8335;42.646;23.380;2023-02-28T07:20:17;143356.56;;;7.12;100.00
8280;BME280;8335;42.646;23.380;2023-02-28T07:22:43;143362.78;;;7.15;100.00
8280;BME280;8335;42.646;23.380;2023-02-28T07:25:10;143377.63;;;7.21;100.00
8280;BME280;8335;42.646;23.380;2023-02-28T07:27:37;143416.09;;;7.37;100.00
8280;BME280;8335;42.646;23.380;2023-02-28T07:30:04;143448.34;;;7.50;100.00
8280;BME280;8335;42.646;23.380;2023-02-28T07:32:33;143492.94;;;7.68;100.00
8280;BME280;8335;42.646;23.380;2023-02-28T07:35:03;143517.78;;;7.79;100.00
8280;BME280;8335;42.646;23.380;2023-02-28T07:37:30;143543.81;;;7.89;100.00
8280;BME280;8335;42.646;23.380;2023-02-28T07:40:02;143557.47;;;7.95;100.00
8280;BME280;8335;42.646;23.380;2023-02-28T07:42:31;143551.22;;;7.92;100.00
8280;BME280;8335;42.646;23.380;2023-02-28T07:44:58;143576.06;;;8.03;100.00
8280;BME280;8335;42.646;23.380;2023-02-28T07:47:25;143595.91;;;8.11;100.00
8280;BME280;8335;42.646;23.380;2023-02-28T07:49:53;143585.97;;;8.07;100.00
8280;BME280;8335;42.646;23.380;2023-02-28T07:52:20;143592.19;;;8.09;100.00
8280;BME280;8335;42.646;23.380;2023-02-28T07:54:46;143649.25;;;8.33;100.00
8280;BME280;8335;42.646;23.380;2023-02-28T07:57:13;143712.59;;;8.59;100.00
8280;BME280;8335;42.646;23.380;2023-02-28T07:59:40;143756.03;;;8.76;100.00
8280;BME280;8335;42.646;23.380;2023-02-28T08:02:08;143818.13;;;9.02;100.00
8280;BME280;8335;42.646;23.380;2023-02-28T08:04:37;143828.03;;;9.06;100.00
8280;BME280;8335;42.646;23.380;2023-02-28T08:07:05;143882.66;;;9.28;100.00
8280;BME280;8335;42.646;23.380;2023-02-28T08:09:32;143943.53;;;9.53;100.00
8280;BME280;8335;42.646;23.380;2023-02-28T08:11:59;143980.78;;;9.69;100.00
8280;BME280;8335;42.646;23.380;2023-02-28T08:14:26;143965.88;;;9.62;100.00
8280;BME280;8335;42.646;23.380;2023-02-28T08:16:52;143960.91;;;9.60;100.00
8280;BME280;8335;42.646;23.380;2023-02-28T08:19:21;143994.47;;;9.74;100.00
8280;BME280;8335;42.646;23.380;2023-02-28T08:21:48;144042.94;;;9.94;100.00
8280;BME280;8335;42.646;23.380;2023-02-28T08:24:16;144057.84;;;10.00;100.00
8280;BME280;8335;42.646;23.380;2023-02-28T08:26:42;144056.56;;;10.00;100.00
8280;BME280;8335;42.646;23.380;2023-02-28T08:29:09;144029.25;;;9.88;100.00
8280;BME280;8335;42.646;23.380;2023-02-28T08:31:36;144087.63;;;10.12;100.00
8280;BME280;8335;42.646;23.380;2023-02-28T08:34:05;144112.56;;;10.23;100.00
8280;BME280;8335;42.646;23.380;2023-02-28T08:36:32;144139.88;;;10.34;100.00
8280;BME280;8335;42.646;23.380;2023-02-28T08:38:59;144175.91;;;10.48;100.00
8280;BME280;8335;42.646;23.380;2023-02-28T08:41:27;144128.72;;;10.29;100.00
8280;BME280;8335;42.646;23.380;2023-02-28T08:43:54;144166.00;;;10.44;100.00
8280;BME280;8335;42.646;23.380;2023-02-28T08:46:20;144172.19;;;10.47;100.00
8280;BME280;8335;42.646;23.380;2023-02-28T08:48:51;144190.84;;;10.55;100.00
8280;BME280;8335;42.646;23.380;2023-02-28T08:51:18;144233.13;;;10.72;100.00
8280;BME280;8335;42.646;23.380;2023-02-28T08:53:52;144224.41;;;10.68;100.00
8280;BME280;8335;42.646;23.380;2023-02-28T08:56:19;144259.22;;;10.83;100.00
8280;BME280;8335;42.646;23.380;2023-02-28T08:58:48;144284.06;;;10.93;100.00
8280;BME280;8335;42.646;23.380;2023-02-28T09:01:16;144313.94;;;11.05;100.00
8280;BME280;8335;42.646;23.380;2023-02-28T09:03:44;144276.63;;;10.90;100.00
8280;BME280;8335;42.646;23.380;2023-02-28T09:06:13;144209.47;;;10.62;100.00
8280;BME280;8335;42.646;23.380;2023-02-28T09:08:40;144177.16;;;10.49;100.00
8280;BME280;8335;42.646;23.380;2023-02-28T09:11:07;144209.47;;;10.62;100.00
8280;BME280;8335;42.646;23.380;2023-02-28T09:13:35;144192.06;;;10.55;100.00
8280;BME280;8335;42.646;23.380;2023-02-28T09:16:06;144203.28;;;10.60;100.00
8280;BME280;8335;42.646;23.380;2023-02-28T09:18:33;144198.31;;;10.58;100.00
8280;BME280;8335;42.646;23.380;2023-02-28T09:21:02;144234.38;;;10.72;100.00
8280;BME280;8335;42.646;23.380;2023-02-28T09:23:30;144218.22;;;10.66;100.00
8280;BME280;8335;42.646;23.380;2023-02-28T09:25:57;144230.59;;;10.71;100.00
8280;BME280;8335;42.646;23.380;2023-02-28T09:28:24;144224.41;;;10.68;100.00
8280;BME280;8335;42.646;23.380;2023-02-28T09:30:52;144198.31;;;10.58;100.00
8280;BME280;8335;42.646;23.380;2023-02-28T09:33:21;144178.41;;;10.50;100.00
8280;BME280;8335;42.646;23.380;2023-02-28T09:35:49;144197.03;;;10.57;100.00
8280;BME280;8335;42.646;23.380;2023-02-28T09:38:16;144219.44;;;10.66;100.00
8280;BME280;8335;42.646;23.380;2023-02-28T09:40:48;144221.94;;;10.67;100.00
8280;BME280;8335;42.646;23.380;2023-02-28T09:43:17;144223.16;;;10.68;100.00
8280;BME280;8335;42.646;23.380;2023-02-28T09:45:50;144198.31;;;10.58;100.00
8280;BME280;8335;42.646;23.380;2023-02-28T09:48:28;144215.72;;;10.65;100.00
8280;BME280;8335;42.646;23.380;2023-02-28T09:51:00;144183.41;;;10.52;100.00
8280;BME280;8335;42.646;23.380;2023-02-28T09:53:31;144226.88;;;10.69;100.00
8280;BME280;8335;42.646;23.380;2023-02-28T09:56:01;144178.41;;;10.50;100.00
8280;BME280;8335;42.646;23.380;2023-02-28T09:58:35;144182.16;;;10.51;100.00
8280;BME280;8335;42.646;23.380;2023-02-28T10:01:06;144209.47;;;10.62;100.00
8280;BME280;8335;42.646;23.380;2023-02-28T10:03:39;144223.16;;;10.68;100.00
8280;BME280;8335;42.646;23.380;2023-02-28T10:06:11;144226.88;;;10.69;100.00
8280;BME280;8335;42.646;23.380;2023-02-28T10:08:45;144194.56;;;10.56;100.00
8280;BME280;8335;42.646;23.380;2023-02-28T10:11:16;144214.44;;;10.64;100.00
8280;BME280;8335;42.646;23.380;2023-02-28T10:13:51;144266.66;;;10.86;100.00
8280;BME280;8335;42.646;23.380;2023-02-28T10:16:25;144313.94;;;11.05;100.00
8280;BME280;8335;42.646;23.380;2023-02-28T10:18:59;144330.09;;;11.12;100.00
8280;BME280;8335;42.646;23.380;2023-02-28T10:21:34;144257.97;;;10.82;100.00
8280;BME280;8335;42.646;23.380;2023-02-28T10:24:05;144272.91;;;10.88;100.00
8280;BME280;8335;42.646;23.380;2023-02-28T10:26:37;144318.88;;;11.07;100.00
8280;BME280;8335;42.646;23.380;2023-02-28T10:29:04;144335.06;;;11.14;100.00
8280;BME280;8335;42.646;23.380;2023-02-28T10:31:32;144357.47;;;11.23;100.00
8280;BME280;8335;42.646;23.380;2023-02-28T10:34:00;144423.38;;;11.50;100.00
8280;BME280;8335;42.646;23.380;2023-02-28T10:36:28;144464.44;;;11.67;100.00
8280;BME280;8335;42.646;23.380;2023-02-28T10:38:55;144474.38;;;11.71;100.00
8280;BME280;8335;42.646;23.380;2023-02-28T10:41:30;144593.91;;;12.20;98.83
8280;BME280;8335;42.646;23.380;2023-02-28T10:44:20;144664.88;;;12.49;96.68
8280;BME280;8335;42.646;23.380;2023-02-28T10:46:48;144681.06;;;12.55;95.33
8280;BME280;8335;42.646;23.380;2023-02-28T10:49:20;144615.06;;;12.28;95.69
8280;BME280;8335;42.646;23.380;2023-02-28T10:51:49;144642.47;;;12.39;96.16
8280;BME280;8335;42.646;23.380;2023-02-28T10:54:22;144631.25;;;12.35;96.20
8280;BME280;8335;42.646;23.380;2023-02-28T10:57:08;144694.75;;;12.61;94.69
8280;BME280;8335;42.646;23.380;2023-02-28T10:59:35;144757.03;;;12.86;92.44
8280;BME280;8335;42.646;23.380;2023-02-28T11:02:32;144826.78;;;13.15;90.66
8280;BME280;8335;42.646;23.380;2023-02-28T11:05:01;144801.84;;;13.05;89.95
8280;BME280;8335;42.646;23.380;2023-02-28T11:07:28;144749.53;;;12.83;90.61
8280;BME280;8335;42.646;23.380;2023-02-28T11:09:57;144714.69;;;12.69;91.75
8280;BME280;8335;42.646;23.380;2023-02-28T11:12:26;144735.84;;;12.78;92.83
8280;BME280;8335;42.646;23.380;2023-02-28T11:14:57;144737.06;;;12.78;91.42
8280;BME280;8335;42.646;23.380;2023-02-28T11:17:28;144693.53;;;12.60;92.56
8280;BME280;8335;42.646;23.380;2023-02-28T11:19:58;144750.78;;;12.84;93.48
8280;BME280;8335;42.646;23.380;2023-02-28T11:22:32;144845.53;;;13.23;90.50
8280;BME280;8335;42.646;23.380;2023-02-28T11:25:02;144769.47;;;12.91;92.43
8280;BME280;8335;42.646;23.380;2023-02-28T11:27:57;144687.31;;;12.58;93.59
8280;BME280;8335;42.646;23.380;2023-02-28T11:30:29;144710.94;;;12.67;93.42
8280;BME280;8335;42.646;23.380;2023-02-28T11:32:57;144571.53;;;12.10;95.38
8280;BME280;8335;42.646;23.380;2023-02-28T11:35:27;144575.25;;;12.12;94.54
8280;BME280;8335;42.646;23.380;2023-02-28T11:37:57;144566.56;;;12.08;96.34
8280;BME280;8335;42.646;23.380;2023-02-28T11:40:30;144500.59;;;11.81;98.00
8280;BME280;8335;42.646;23.380;2023-02-28T11:43:10;144456.97;;;11.64;99.71
8280;BME280;8335;42.646;23.380;2023-02-28T11:45:48;144518.00;;;11.89;98.43
8280;BME280;8335;42.646;23.380;2023-02-28T11:48:22;144542.88;;;11.99;97.31
8280;BME280;8335;42.646;23.380;2023-02-28T11:50:56;144552.84;;;12.03;97.54
8280;BME280;8335;42.646;23.380;2023-02-28T11:53:37;144531.69;;;11.94;97.03
8280;BME280;8335;42.646;23.380;2023-02-28T11:56:16;144471.91;;;11.70;97.78
8280;BME280;8335;42.646;23.380;2023-02-28T11:58:52;144513.03;;;11.87;97.91
8280;BME280;8335;42.646;23.380;2023-02-28T12:01:28;144596.38;;;12.21;96.07
8280;BME280;8335;42.646;23.380;2023-02-28T12:04:09;144627.53;;;12.33;92.95
8280;BME280;8335;42.646;23.380;2023-02-28T12:06:45;144582.75;;;12.15;94.20
8280;BME280;8335;42.646;23.380;2023-02-28T12:09:26;144542.88;;;11.99;94.46
8280;BME280;8335;42.646;23.380;2023-02-28T12:11:57;144580.22;;;12.14;94.17
8280;BME280;8335;42.646;23.380;2023-02-28T12:14:40;144592.66;;;12.19;94.90
8280;BME280;8335;42.646;23.380;2023-02-28T12:17:20;144612.56;;;12.27;94.78
8280;BME280;8335;42.646;23.380;2023-02-28T12:19:56;144504.31;;;11.83;96.61
8280;BME280;8335;42.646;23.380;2023-02-28T12:22:30;144501.81;;;11.82;96.51
8280;BME280;8335;42.646;23.380;2023-02-28T12:25:20;144445.78;;;11.59;97.64
8280;BME280;8335;42.646;23.380;2023-02-28T12:27:49;144444.56;;;11.58;96.78
8280;BME280;8335;42.646;23.380;2023-02-28T12:30:22;144501.81;;;11.82;96.25
8280;BME280;8335;42.646;23.380;2023-02-28T12:32:54;144440.78;;;11.57;97.62
8280;BME280;8335;42.646;23.380;2023-02-28T12:35:24;144369.88;;;11.28;99.64
8280;BME280;8335;42.646;23.380;2023-02-28T12:37:57;144341.31;;;11.16;100.00
8280;BME280;8335;42.646;23.380;2023-02-28T12:40:38;144353.72;;;11.21;99.62
8280;BME280;8335;42.646;23.380;2023-02-28T12:43:08;144356.25;;;11.22;99.47
8280;BME280;8335;42.646;23.380;2023-02-28T12:45:43;144424.66;;;11.50;98.64
8280;BME280;8335;42.646;23.380;2023-02-28T12:48:17;144415.91;;;11.47;97.90
8280;BME280;8335;42.646;23.380;2023-02-28T12:50:47;144387.28;;;11.35;97.93
8280;BME280;8335;42.646;23.380;2023-02-28T12:53:21;144359.97;;;11.24;98.31
8280;BME280;8335;42.646;23.380;2023-02-28T12:55:58;144378.63;;;11.32;98.72
8280;BME280;8335;42.646;23.380;2023-02-28T12:58:34;144435.81;;;11.55;96.55
8280;BME280;8335;42.646;23.380;2023-02-28T13:04:27;144434.59;;;11.54;96.80
8280;BME280;8335;42.646;23.380;2023-02-28T13:07:10;144463.22;;;11.66;96.38
8280;BME280;8335;42.646;23.380;2023-02-28T13:09:52;144486.84;;;11.76;94.82
8280;BME280;8335;42.646;23.380;2023-02-28T13:12:20;144498.09;;;11.80;95.55
8280;BME280;8335;42.646;23.380;2023-02-28T13:14:48;144504.31;;;11.83;94.35
8280;BME280;8335;42.646;23.380;2023-02-28T13:17:18;144496.81;;;11.80;94.76
8280;BME280;8335;42.646;23.380;2023-02-28T13:19:56;144493.03;;;11.78;95.10
8280;BME280;8335;42.646;23.380;2023-02-28T13:22:38;144488.09;;;11.76;93.02
8280;BME280;8335;42.646;23.380;2023-02-28T13:31:33;144520.47;;;11.90;92.33
8280;BME280;8335;42.646;23.380;2023-02-28T13:34:19;144494.34;;;11.79;92.18